UAE88 LSZH-OMDB
Flight info
| Callsign | UAE88 |
|---|---|
| Flight time | 6h 5m |
| Altitude | 37000 |
| Route | DEGES Z2 XEBIX L607 ELMEM N606 GIRIS DCT TISAX DCT NAXAV DCT GIKEB DCT ROSKA DCT ROTAR DCT AIOSA DCT LATAN DCT SALUN/N0478F390 N705 MMA P751 DASUM Y234 FYM M872 BDB Y214 RAPMA DCT KUVSO DCT KATIT DCT PEKEM M628 RIGIL G783 ELUDA/N0465F350 G783 ASPED Q308 KIPOK Q568 IMPED |
| Aircraft | A388/J-SADE3GHIJ2J3J4J5M1P2RWXYZ/LB1D1 |
Departure
| Time | 2026-05-04 11:00 |
|---|---|
| Airport | Zürich Airport (LSZH) |
Arrival
| Time | 2026-05-04 17:05 |
|---|---|
| Airport | Dubai International Airport (OMDB) |
| Time | Latitude | Longitude | Altitude | Speed | Heading |
|---|---|---|---|---|---|
| 2026-05-04 10:19 | 47.46202 | 8.55095 | 1402 ft | 0 kts | 155° |
| 2026-05-04 10:44 | 47.46237 | 8.55072 | 1410 ft | 2 kts | 155° |
| 2026-05-04 10:45 | 47.46258 | 8.55054 | 1411 ft | 4 kts | 142° |
| 2026-05-04 10:45 | 47.46276 | 8.55027 | 1408 ft | 4 kts | 126° |
| 2026-05-04 10:45 | 47.46288 | 8.54994 | 1410 ft | 4 kts | 110° |
| 2026-05-04 10:45 | 47.46295 | 8.54957 | 1409 ft | 4 kts | 98° |
| 2026-05-04 10:46 | 47.46297 | 8.54917 | 1407 ft | 4 kts | 92° |
| 2026-05-04 10:46 | 47.46298 | 8.54878 | 1407 ft | 4 kts | 94° |
| 2026-05-04 10:46 | 47.46300 | 8.54840 | 1406 ft | 4 kts | 85° |
| 2026-05-04 10:46 | 47.46294 | 8.54807 | 1411 ft | 4 kts | 57° |
| 2026-05-04 10:47 | 47.46280 | 8.54789 | 1411 ft | 4 kts | 19° |
| 2026-05-04 10:47 | 47.46257 | 8.54786 | 1411 ft | 4 kts | 352° |
| 2026-05-04 10:47 | 47.46232 | 8.54795 | 1411 ft | 4 kts | 340° |
| 2026-05-04 10:47 | 47.46215 | 8.54805 | 1411 ft | 0 kts | 335° |
| 2026-05-04 10:51 | 47.46267 | 8.54770 | 1411 ft | 6 kts | 335° |
| 2026-05-04 10:52 | 47.46308 | 8.54747 | 1410 ft | 6 kts | 359° |
| 2026-05-04 10:52 | 47.46358 | 8.54763 | 1402 ft | 9 kts | 21° |
| 2026-05-04 10:52 | 47.46413 | 8.54793 | 1408 ft | 6 kts | 11° |
| 2026-05-04 10:54 | 47.46829 | 8.54422 | 1406 ft | 8 kts | 308° |
| 2026-05-04 10:54 | 47.46877 | 8.54364 | 1409 ft | 9 kts | 334° |
| 2026-05-04 10:56 | 47.47442 | 8.53976 | 1409 ft | 19 kts | 335° |
| 2026-05-04 10:56 | 47.47540 | 8.53909 | 1410 ft | 5 kts | 335° |
| 2026-05-04 10:56 | 47.47540 | 8.53908 | 1410 ft | 1 kts | 335° |
| 2026-05-04 10:57 | 47.47556 | 8.53897 | 1408 ft | 4 kts | 335° |
| 2026-05-04 10:57 | 47.47587 | 8.53873 | 1409 ft | 5 kts | 320° |
| 2026-05-04 10:57 | 47.47607 | 8.53825 | 1411 ft | 6 kts | 282° |
| 2026-05-04 10:57 | 47.47606 | 8.53751 | 1407 ft | 8 kts | 256° |
| 2026-05-04 10:58 | 47.47578 | 8.53657 | 1412 ft | 10 kts | 240° |
| 2026-05-04 10:58 | 47.47545 | 8.53621 | 1407 ft | 6 kts | 188° |
| 2026-05-04 10:58 | 47.47505 | 8.53636 | 1410 ft | 6 kts | 153° |
| 2026-05-04 10:58 | 47.47502 | 8.53639 | 1407 ft | 0 kts | 152° |
| 2026-05-04 10:59 | 47.47410 | 8.53707 | 1409 ft | 48 kts | 154° |
| 2026-05-04 10:59 | 47.46879 | 8.54070 | 1412 ft | 117 kts | 155° |
| 2026-05-04 10:59 | 47.45993 | 8.54683 | 1409 ft | 160 kts | 155° |
| 2026-05-04 10:59 | 47.44946 | 8.55398 | 1735 ft | 166 kts | 153° |
| 2026-05-04 11:00 | 47.43895 | 8.56132 | 2206 ft | 168 kts | 153° |
| 2026-05-04 11:01 | 47.44280 | 8.64572 | 5023 ft | 195 kts | 43° |
| 2026-05-04 11:02 | 47.45320 | 8.65981 | 5151 ft | 210 kts | 54° |
| 2026-05-04 11:02 | 47.45896 | 8.68064 | 5325 ft | 233 kts | 79° |
| 2026-05-04 11:05 | 47.42601 | 9.10883 | 13023 ft | 362 kts | 104° |
| 2026-05-04 11:06 | 47.42074 | 9.14537 | 13589 ft | 367 kts | 104° |
| 2026-05-04 11:06 | 47.41620 | 9.18262 | 14164 ft | 373 kts | 97° |
| 2026-05-04 11:06 | 47.41630 | 9.22053 | 14928 ft | 372 kts | 86° |
| 2026-05-04 11:06 | 47.42086 | 9.25838 | 15471 ft | 378 kts | 78° |
| 2026-05-04 11:08 | 47.46220 | 9.53035 | 19091 ft | 398 kts | 80° |
| 2026-05-04 11:10 | 47.40260 | 9.78096 | 22035 ft | 399 kts | 133° |
| 2026-05-04 11:12 | 47.27593 | 10.00596 | 24678 ft | 419 kts | 133° |
| 2026-05-04 11:12 | 47.25719 | 10.03910 | 25041 ft | 422 kts | 133° |
| 2026-05-04 11:12 | 47.23834 | 10.07240 | 25486 ft | 423 kts | 133° |
| 2026-05-04 11:12 | 47.21946 | 10.10575 | 25882 ft | 426 kts | 133° |
| 2026-05-04 11:13 | 47.20042 | 10.13933 | 26283 ft | 429 kts | 133° |
| 2026-05-04 11:13 | 47.18124 | 10.17311 | 26717 ft | 431 kts | 133° |
| 2026-05-04 11:13 | 47.16190 | 10.20711 | 27087 ft | 436 kts | 133° |
| 2026-05-04 11:13 | 47.14250 | 10.24115 | 27545 ft | 438 kts | 133° |
| 2026-05-04 11:14 | 47.12292 | 10.27549 | 27996 ft | 440 kts | 133° |
| 2026-05-04 11:14 | 47.10322 | 10.31001 | 28445 ft | 442 kts | 133° |
| 2026-05-04 11:14 | 47.08335 | 10.34475 | 28852 ft | 446 kts | 133° |
| 2026-05-04 11:16 | 46.94032 | 10.59363 | 31755 ft | 465 kts | 133° |
| 2026-05-04 11:16 | 46.91940 | 10.62986 | 32128 ft | 467 kts | 133° |
| 2026-05-04 11:16 | 46.89835 | 10.66623 | 32514 ft | 470 kts | 133° |
| 2026-05-04 11:17 | 46.87716 | 10.70282 | 32836 ft | 473 kts | 133° |
| 2026-05-04 11:17 | 46.85616 | 10.73903 | 33231 ft | 474 kts | 133° |
| 2026-05-04 11:19 | 46.70543 | 10.97889 | 35615 ft | 483 kts | 138° |
| 2026-05-04 11:19 | 46.67384 | 11.02412 | 36159 ft | 483 kts | 138° |
| 2026-05-04 11:19 | 46.65744 | 11.04754 | 36349 ft | 486 kts | 138° |
| 2026-05-04 11:19 | 46.63326 | 11.08201 | 36596 ft | 489 kts | 138° |
| 2026-05-04 11:20 | 46.60898 | 11.11657 | 36846 ft | 485 kts | 138° |
| 2026-05-04 11:20 | 46.58493 | 11.15076 | 37089 ft | 485 kts | 138° |
| 2026-05-04 11:20 | 46.53661 | 11.21931 | 37067 ft | 485 kts | 138° |
| 2026-05-04 11:22 | 46.32978 | 11.46490 | 37072 ft | 484 kts | 146° |
| 2026-05-04 11:23 | 46.27575 | 11.52223 | 37081 ft | 485 kts | 146° |
| 2026-05-04 11:25 | 46.09738 | 11.74499 | 37095 ft | 487 kts | 137° |
| 2026-05-04 11:25 | 46.04969 | 11.81435 | 37093 ft | 488 kts | 137° |
| 2026-05-04 11:27 | 45.83408 | 12.12561 | 37099 ft | 488 kts | 137° |
| 2026-05-04 11:28 | 45.78647 | 12.19386 | 37093 ft | 488 kts | 137° |
| 2026-05-04 11:28 | 45.73813 | 12.26297 | 37088 ft | 488 kts | 137° |
| 2026-05-04 11:29 | 45.69008 | 12.33150 | 37084 ft | 488 kts | 137° |
| 2026-05-04 11:29 | 45.64188 | 12.40006 | 37089 ft | 489 kts | 137° |
| 2026-05-04 11:33 | 45.30694 | 12.88329 | 37094 ft | 495 kts | 125° |
| 2026-05-04 11:33 | 45.27222 | 12.96792 | 37099 ft | 495 kts | 125° |
| 2026-05-04 11:34 | 45.22879 | 13.04304 | 37107 ft | 492 kts | 138° |
| 2026-05-04 11:34 | 45.17941 | 13.11020 | 37109 ft | 492 kts | 138° |
| 2026-05-04 11:35 | 45.13024 | 13.17781 | 37110 ft | 493 kts | 137° |
| 2026-05-04 11:35 | 45.08100 | 13.24547 | 37109 ft | 493 kts | 137° |
| 2026-05-04 11:36 | 45.03170 | 13.31297 | 37113 ft | 494 kts | 138° |
| 2026-05-04 11:36 | 44.98406 | 13.37797 | 37109 ft | 495 kts | 138° |
| 2026-05-04 11:37 | 44.93454 | 13.44535 | 37121 ft | 495 kts | 138° |
| 2026-05-04 11:37 | 44.88489 | 13.51275 | 37114 ft | 495 kts | 138° |
| 2026-05-04 11:38 | 44.83535 | 13.57982 | 37122 ft | 496 kts | 138° |
| 2026-05-04 11:38 | 44.78596 | 13.64653 | 37127 ft | 496 kts | 138° |
| 2026-05-04 11:39 | 44.73585 | 13.71404 | 37130 ft | 496 kts | 138° |
| 2026-05-04 11:41 | 44.56104 | 13.94821 | 37126 ft | 498 kts | 138° |
| 2026-05-04 11:41 | 44.51086 | 14.01505 | 37116 ft | 498 kts | 138° |
| 2026-05-04 11:42 | 44.46060 | 14.08183 | 37113 ft | 498 kts | 138° |
| 2026-05-04 11:42 | 44.41027 | 14.14854 | 37122 ft | 499 kts | 138° |
| 2026-05-04 11:43 | 44.35988 | 14.21517 | 37128 ft | 499 kts | 138° |
| 2026-05-04 11:43 | 44.30937 | 14.28178 | 37128 ft | 499 kts | 138° |
| 2026-05-04 11:44 | 44.25889 | 14.34818 | 37116 ft | 500 kts | 138° |
| 2026-05-04 11:44 | 44.20876 | 14.41397 | 37120 ft | 501 kts | 138° |
| 2026-05-04 11:45 | 44.15799 | 14.48044 | 37126 ft | 501 kts | 138° |
| 2026-05-04 11:45 | 44.10710 | 14.54689 | 37132 ft | 501 kts | 138° |
| 2026-05-04 11:46 | 44.05653 | 14.61277 | 37134 ft | 502 kts | 138° |
| 2026-05-04 11:46 | 44.00567 | 14.67885 | 37152 ft | 501 kts | 138° |
| 2026-05-04 11:47 | 43.95439 | 14.74533 | 37153 ft | 501 kts | 139° |
| 2026-05-04 11:47 | 43.90369 | 14.81088 | 37133 ft | 501 kts | 139° |
| 2026-05-04 11:48 | 43.85268 | 14.87668 | 37135 ft | 501 kts | 139° |
| 2026-05-04 11:48 | 43.80186 | 14.94207 | 37125 ft | 501 kts | 138° |
| 2026-05-04 11:49 | 43.75059 | 15.00787 | 37121 ft | 502 kts | 138° |
| 2026-05-04 11:49 | 43.69935 | 15.07349 | 37124 ft | 503 kts | 138° |
| 2026-05-04 11:50 | 43.64799 | 15.13909 | 37130 ft | 503 kts | 139° |
| 2026-05-04 11:50 | 43.59652 | 15.20467 | 37136 ft | 504 kts | 139° |
| 2026-05-04 11:51 | 43.54502 | 15.27013 | 37153 ft | 504 kts | 139° |
| 2026-05-04 11:51 | 43.49386 | 15.33501 | 37126 ft | 505 kts | 138° |
| 2026-05-04 11:52 | 43.44208 | 15.40050 | 37135 ft | 506 kts | 139° |
| 2026-05-04 11:52 | 43.39020 | 15.46597 | 37136 ft | 507 kts | 139° |
| 2026-05-04 11:53 | 43.33820 | 15.53143 | 37158 ft | 507 kts | 139° |
| 2026-05-04 11:53 | 43.28636 | 15.59653 | 37152 ft | 507 kts | 139° |
| 2026-05-04 11:55 | 43.07768 | 15.85700 | 37150 ft | 509 kts | 139° |
| 2026-05-04 11:56 | 43.02516 | 15.92216 | 37152 ft | 510 kts | 139° |
| 2026-05-04 11:56 | 42.97297 | 15.98675 | 37150 ft | 510 kts | 139° |
| 2026-05-04 11:57 | 42.91996 | 16.05221 | 37121 ft | 511 kts | 139° |
| 2026-05-04 11:57 | 42.86714 | 16.11727 | 37121 ft | 512 kts | 139° |
| 2026-05-04 11:58 | 42.81478 | 16.18161 | 37122 ft | 512 kts | 139° |
| 2026-05-04 11:58 | 42.76128 | 16.24719 | 37121 ft | 513 kts | 139° |
| 2026-05-04 11:59 | 42.70851 | 16.31172 | 37119 ft | 513 kts | 139° |
| 2026-05-04 11:59 | 42.65539 | 16.37652 | 37114 ft | 514 kts | 139° |
| 2026-05-04 12:00 | 42.60211 | 16.44137 | 37119 ft | 514 kts | 139° |
| 2026-05-04 12:00 | 42.54879 | 16.50611 | 37127 ft | 515 kts | 139° |
| 2026-05-04 12:01 | 42.49523 | 16.57098 | 37151 ft | 516 kts | 139° |
| 2026-05-04 12:02 | 42.30722 | 16.79748 | 37131 ft | 518 kts | 139° |
| 2026-05-04 12:03 | 42.25330 | 16.86209 | 37134 ft | 519 kts | 139° |
| 2026-05-04 12:03 | 42.19924 | 16.92672 | 37135 ft | 519 kts | 139° |
| 2026-05-04 12:04 | 42.14519 | 16.99118 | 37149 ft | 519 kts | 139° |
| 2026-05-04 12:04 | 42.09137 | 17.05520 | 37173 ft | 519 kts | 139° |
| 2026-05-04 12:05 | 42.03697 | 17.11981 | 37130 ft | 520 kts | 139° |
| 2026-05-04 12:05 | 41.98299 | 17.18380 | 37133 ft | 520 kts | 139° |
| 2026-05-04 12:06 | 41.92709 | 17.24535 | 37136 ft | 520 kts | 146° |
| 2026-05-04 12:06 | 41.86410 | 17.29307 | 37134 ft | 519 kts | 154° |
| 2026-05-04 12:07 | 41.79977 | 17.33731 | 37139 ft | 520 kts | 154° |
| 2026-05-04 12:07 | 41.73552 | 17.38184 | 37140 ft | 520 kts | 154° |
| 2026-05-04 12:08 | 41.67170 | 17.42590 | 37123 ft | 521 kts | 154° |
| 2026-05-04 12:08 | 41.60712 | 17.47036 | 37132 ft | 522 kts | 154° |
| 2026-05-04 12:09 | 41.55303 | 17.50751 | 37133 ft | 522 kts | 154° |
| 2026-05-04 12:09 | 41.48918 | 17.55127 | 37137 ft | 523 kts | 154° |
| 2026-05-04 12:10 | 41.42453 | 17.59548 | 37139 ft | 523 kts | 154° |
| 2026-05-04 12:10 | 41.35971 | 17.63971 | 37145 ft | 524 kts | 154° |
| 2026-05-04 12:11 | 41.29497 | 17.68378 | 37146 ft | 524 kts | 154° |
| 2026-05-04 12:11 | 41.23053 | 17.72755 | 37145 ft | 523 kts | 154° |
| 2026-05-04 12:12 | 41.16598 | 17.77130 | 37122 ft | 524 kts | 154° |
| 2026-05-04 12:12 | 41.10115 | 17.81514 | 37124 ft | 525 kts | 154° |
| 2026-05-04 12:14 | 40.84059 | 17.99037 | 37136 ft | 527 kts | 154° |
| 2026-05-04 12:15 | 40.77522 | 18.03408 | 37137 ft | 527 kts | 154° |
| 2026-05-04 12:15 | 40.70986 | 18.07769 | 37132 ft | 527 kts | 154° |
| 2026-05-04 12:16 | 40.64436 | 18.12130 | 37131 ft | 527 kts | 154° |
| 2026-05-04 12:16 | 40.57893 | 18.16477 | 37132 ft | 527 kts | 154° |
| 2026-05-04 12:17 | 40.51355 | 18.20811 | 37121 ft | 527 kts | 154° |
| 2026-05-04 12:17 | 40.44804 | 18.25143 | 37118 ft | 527 kts | 154° |
| 2026-05-04 12:18 | 40.38262 | 18.29461 | 37118 ft | 527 kts | 154° |
| 2026-05-04 12:18 | 40.31711 | 18.33774 | 37119 ft | 527 kts | 155° |
| 2026-05-04 12:19 | 40.25153 | 18.38083 | 37115 ft | 527 kts | 155° |
| 2026-05-04 12:19 | 40.18592 | 18.42385 | 37139 ft | 527 kts | 155° |
| 2026-05-04 12:20 | 40.12022 | 18.46683 | 37119 ft | 529 kts | 154° |
| 2026-05-04 12:20 | 40.05438 | 18.50981 | 37126 ft | 529 kts | 154° |
| 2026-05-04 12:21 | 39.98860 | 18.55266 | 37122 ft | 530 kts | 154° |
| 2026-05-04 12:21 | 39.92255 | 18.59558 | 37129 ft | 531 kts | 155° |
| 2026-05-04 12:22 | 39.85717 | 18.63799 | 37149 ft | 531 kts | 155° |
| 2026-05-04 12:22 | 39.79060 | 18.68108 | 37146 ft | 531 kts | 155° |
| 2026-05-04 12:23 | 39.72425 | 18.72391 | 37148 ft | 532 kts | 155° |
| 2026-05-04 12:23 | 39.65871 | 18.76615 | 37144 ft | 532 kts | 155° |
| 2026-05-04 12:24 | 39.59255 | 18.80868 | 37128 ft | 532 kts | 154° |
| 2026-05-04 12:24 | 39.52631 | 18.85119 | 37125 ft | 532 kts | 155° |
| 2026-05-04 12:25 | 39.45993 | 18.89369 | 37129 ft | 533 kts | 155° |
| 2026-05-04 12:25 | 39.39352 | 18.93612 | 37135 ft | 533 kts | 155° |
| 2026-05-04 12:26 | 39.32705 | 18.97852 | 37122 ft | 533 kts | 155° |
| 2026-05-04 12:26 | 39.26519 | 19.03109 | 37143 ft | 535 kts | 139° |
| 2026-05-04 12:27 | 39.20971 | 19.09415 | 37139 ft | 535 kts | 139° |
| 2026-05-04 12:27 | 39.15352 | 19.15752 | 37132 ft | 535 kts | 138° |
| 2026-05-04 12:28 | 39.09744 | 19.22064 | 37131 ft | 536 kts | 138° |
| 2026-05-04 12:28 | 39.04131 | 19.28370 | 37133 ft | 536 kts | 138° |
| 2026-05-04 12:29 | 38.98512 | 19.34669 | 37135 ft | 536 kts | 139° |
| 2026-05-04 12:29 | 38.92900 | 19.40940 | 37137 ft | 536 kts | 139° |
| 2026-05-04 12:30 | 38.87277 | 19.47209 | 37150 ft | 536 kts | 138° |
| 2026-05-04 12:30 | 38.81653 | 19.53464 | 37139 ft | 536 kts | 138° |
| 2026-05-04 12:31 | 38.76016 | 19.59720 | 37134 ft | 536 kts | 139° |
| 2026-05-04 12:31 | 38.70375 | 19.65968 | 37134 ft | 536 kts | 139° |
| 2026-05-04 12:32 | 38.61900 | 19.75327 | 37142 ft | 537 kts | 139° |
| 2026-05-04 12:33 | 38.56242 | 19.81559 | 37152 ft | 537 kts | 139° |
| 2026-05-04 12:33 | 38.50571 | 19.87793 | 37137 ft | 538 kts | 139° |
| 2026-05-04 12:34 | 38.44889 | 19.94024 | 37133 ft | 539 kts | 139° |
| 2026-05-04 12:34 | 38.39205 | 20.00245 | 37141 ft | 539 kts | 139° |
| 2026-05-04 12:35 | 38.33506 | 20.06469 | 37151 ft | 539 kts | 139° |
| 2026-05-04 12:35 | 38.27857 | 20.12624 | 37156 ft | 540 kts | 139° |
| 2026-05-04 12:36 | 38.22146 | 20.18834 | 37149 ft | 540 kts | 139° |
| 2026-05-04 12:36 | 38.16442 | 20.25023 | 37169 ft | 541 kts | 139° |
| 2026-05-04 12:37 | 38.10684 | 20.31257 | 37177 ft | 541 kts | 139° |
| 2026-05-04 12:37 | 38.04952 | 20.37450 | 37183 ft | 541 kts | 139° |
| 2026-05-04 12:38 | 37.99254 | 20.43594 | 37183 ft | 541 kts | 139° |
| 2026-05-04 12:38 | 37.93528 | 20.49754 | 37139 ft | 542 kts | 139° |
| 2026-05-04 12:39 | 37.87775 | 20.55930 | 37143 ft | 542 kts | 139° |
| 2026-05-04 12:39 | 37.82041 | 20.62072 | 37153 ft | 543 kts | 139° |
| 2026-05-04 12:40 | 37.76300 | 20.68209 | 37161 ft | 543 kts | 139° |
| 2026-05-04 12:40 | 37.70519 | 20.74376 | 37150 ft | 543 kts | 139° |
| 2026-05-04 12:41 | 37.64787 | 20.80478 | 37159 ft | 543 kts | 139° |
| 2026-05-04 12:41 | 37.58992 | 20.86634 | 37150 ft | 544 kts | 139° |
| 2026-05-04 12:42 | 37.53209 | 20.92764 | 37150 ft | 544 kts | 139° |
| 2026-05-04 12:42 | 37.47407 | 20.98902 | 37154 ft | 545 kts | 139° |
| 2026-05-04 12:43 | 37.41611 | 21.05020 | 37145 ft | 545 kts | 140° |
| 2026-05-04 12:43 | 37.35816 | 21.11124 | 37157 ft | 545 kts | 140° |
| 2026-05-04 12:44 | 37.30048 | 21.17188 | 37142 ft | 546 kts | 140° |
| 2026-05-04 12:44 | 37.24284 | 21.23234 | 37148 ft | 546 kts | 140° |
| 2026-05-04 12:45 | 37.18413 | 21.29381 | 37153 ft | 546 kts | 140° |
| 2026-05-04 12:45 | 37.12575 | 21.35479 | 37161 ft | 546 kts | 140° |
| 2026-05-04 12:46 | 37.06768 | 21.41533 | 37165 ft | 546 kts | 140° |
| 2026-05-04 12:46 | 37.00936 | 21.47600 | 37164 ft | 547 kts | 140° |
| 2026-05-04 12:47 | 36.95096 | 21.53663 | 37160 ft | 547 kts | 140° |
| 2026-05-04 12:47 | 36.89245 | 21.59725 | 37149 ft | 546 kts | 140° |
| 2026-05-04 12:48 | 36.83391 | 21.65778 | 37150 ft | 546 kts | 140° |
| 2026-05-04 12:48 | 36.77537 | 21.71819 | 37155 ft | 546 kts | 140° |
| 2026-05-04 12:49 | 36.71683 | 21.77847 | 37153 ft | 546 kts | 141° |
| 2026-05-04 12:49 | 36.65822 | 21.83870 | 37150 ft | 546 kts | 141° |
| 2026-05-04 12:50 | 36.59955 | 21.89886 | 37151 ft | 546 kts | 141° |
| 2026-05-04 12:50 | 36.54085 | 21.95894 | 37149 ft | 546 kts | 141° |
| 2026-05-04 12:51 | 36.48215 | 22.01889 | 37150 ft | 547 kts | 141° |
| 2026-05-04 12:51 | 36.42332 | 22.07886 | 37147 ft | 547 kts | 141° |
| 2026-05-04 12:52 | 36.36446 | 22.13873 | 37169 ft | 547 kts | 141° |
| 2026-05-04 12:52 | 36.30551 | 22.19858 | 37145 ft | 548 kts | 141° |
| 2026-05-04 12:53 | 36.24661 | 22.25824 | 37147 ft | 548 kts | 141° |
| 2026-05-04 12:53 | 36.18758 | 22.31793 | 37153 ft | 548 kts | 141° |
| 2026-05-04 12:54 | 36.12858 | 22.37746 | 37151 ft | 548 kts | 141° |
| 2026-05-04 12:54 | 36.06930 | 22.43716 | 37157 ft | 548 kts | 141° |
| 2026-05-04 12:55 | 36.01047 | 22.49629 | 37149 ft | 549 kts | 141° |
| 2026-05-04 12:55 | 35.96088 | 22.54605 | 37158 ft | 548 kts | 141° |
| 2026-05-04 12:56 | 35.90162 | 22.60538 | 37154 ft | 548 kts | 141° |
| 2026-05-04 12:56 | 35.84236 | 22.66460 | 37159 ft | 548 kts | 142° |
| 2026-05-04 12:57 | 35.78311 | 22.72370 | 37157 ft | 548 kts | 142° |
| 2026-05-04 12:57 | 35.72381 | 22.78272 | 37200 ft | 548 kts | 142° |
| 2026-05-04 12:58 | 35.66446 | 22.84169 | 37149 ft | 549 kts | 142° |
| 2026-05-04 12:58 | 35.60502 | 22.90062 | 37152 ft | 549 kts | 142° |
| 2026-05-04 12:59 | 35.54554 | 22.95948 | 37158 ft | 549 kts | 142° |
| 2026-05-04 12:59 | 35.48615 | 23.01813 | 37158 ft | 550 kts | 142° |
| 2026-05-04 13:00 | 35.42646 | 23.07697 | 37132 ft | 550 kts | 142° |
| 2026-05-04 13:00 | 35.36685 | 23.13562 | 37159 ft | 550 kts | 143° |
| 2026-05-04 13:01 | 35.30715 | 23.19423 | 37170 ft | 550 kts | 143° |
| 2026-05-04 13:01 | 35.24741 | 23.25277 | 37166 ft | 550 kts | 143° |
| 2026-05-04 13:02 | 35.18805 | 23.31082 | 37171 ft | 550 kts | 143° |
| 2026-05-04 13:02 | 35.12832 | 23.36912 | 37143 ft | 549 kts | 143° |
| 2026-05-04 13:03 | 35.06831 | 23.42759 | 37163 ft | 549 kts | 143° |
| 2026-05-04 13:03 | 35.00898 | 23.48528 | 37183 ft | 551 kts | 143° |
| 2026-05-04 13:03 | 34.97892 | 23.51446 | 37412 ft | 552 kts | 143° |
| 2026-05-04 13:04 | 34.94890 | 23.54358 | 37679 ft | 551 kts | 143° |
| 2026-05-04 13:04 | 34.91909 | 23.57248 | 37948 ft | 550 kts | 143° |
| 2026-05-04 13:04 | 34.88916 | 23.60145 | 38229 ft | 548 kts | 143° |
| 2026-05-04 13:04 | 34.85937 | 23.63027 | 38495 ft | 547 kts | 143° |
| 2026-05-04 13:05 | 34.82958 | 23.65906 | 38750 ft | 546 kts | 143° |
| 2026-05-04 13:05 | 34.79988 | 23.68773 | 38978 ft | 545 kts | 143° |
| 2026-05-04 13:05 | 34.77019 | 23.71637 | 39116 ft | 544 kts | 143° |
| 2026-05-04 13:06 | 34.71113 | 23.77325 | 39142 ft | 543 kts | 143° |
| 2026-05-04 13:06 | 34.65183 | 23.83025 | 39154 ft | 543 kts | 143° |
| 2026-05-04 13:07 | 34.59258 | 23.88710 | 39159 ft | 542 kts | 143° |
| 2026-05-04 13:07 | 34.53338 | 23.94380 | 39144 ft | 541 kts | 143° |
| 2026-05-04 13:08 | 34.47428 | 24.00029 | 39144 ft | 540 kts | 144° |
| 2026-05-04 13:08 | 34.41546 | 24.05642 | 39134 ft | 539 kts | 144° |
| 2026-05-04 13:09 | 34.35637 | 24.11270 | 39122 ft | 539 kts | 144° |
| 2026-05-04 13:09 | 34.29745 | 24.16871 | 39118 ft | 538 kts | 144° |
| 2026-05-04 13:10 | 34.23854 | 24.22461 | 39118 ft | 538 kts | 144° |
| 2026-05-04 13:10 | 34.17959 | 24.28048 | 39130 ft | 539 kts | 144° |
| 2026-05-04 13:11 | 34.12060 | 24.33632 | 39140 ft | 540 kts | 144° |
| 2026-05-04 13:11 | 34.06144 | 24.39221 | 39154 ft | 541 kts | 144° |
| 2026-05-04 13:12 | 34.00214 | 24.44814 | 39157 ft | 541 kts | 144° |
| 2026-05-04 13:12 | 33.94490 | 24.50711 | 39130 ft | 542 kts | 139° |
| 2026-05-04 13:13 | 33.88948 | 24.56828 | 39151 ft | 542 kts | 140° |
| 2026-05-04 13:13 | 33.83338 | 24.62911 | 39152 ft | 541 kts | 140° |
| 2026-05-04 13:14 | 33.77723 | 24.68938 | 39151 ft | 541 kts | 140° |
| 2026-05-04 13:14 | 33.72098 | 24.74954 | 39148 ft | 541 kts | 140° |
| 2026-05-04 13:15 | 33.66472 | 24.80961 | 39145 ft | 541 kts | 140° |
| 2026-05-04 13:15 | 33.60887 | 24.86915 | 39140 ft | 541 kts | 141° |
| 2026-05-04 13:16 | 33.55267 | 24.92895 | 39139 ft | 541 kts | 141° |
| 2026-05-04 13:16 | 33.49621 | 24.98891 | 39143 ft | 541 kts | 141° |
| 2026-05-04 13:17 | 33.43987 | 25.04865 | 39145 ft | 542 kts | 141° |
| 2026-05-04 13:17 | 33.38339 | 25.10842 | 39149 ft | 542 kts | 141° |
| 2026-05-04 13:18 | 33.32689 | 25.16811 | 39144 ft | 542 kts | 141° |
| 2026-05-04 13:18 | 33.27041 | 25.22766 | 39146 ft | 542 kts | 141° |
| 2026-05-04 13:19 | 33.21390 | 25.28714 | 39146 ft | 542 kts | 141° |
| 2026-05-04 13:19 | 33.15733 | 25.34659 | 39155 ft | 541 kts | 141° |
| 2026-05-04 13:20 | 33.10080 | 25.40587 | 39148 ft | 541 kts | 141° |
| 2026-05-04 13:20 | 33.04435 | 25.46498 | 39142 ft | 540 kts | 141° |
| 2026-05-04 13:21 | 32.98782 | 25.52406 | 39119 ft | 540 kts | 142° |
| 2026-05-04 13:21 | 32.93136 | 25.58296 | 39121 ft | 540 kts | 142° |
| 2026-05-04 13:22 | 32.87480 | 25.64186 | 39127 ft | 541 kts | 142° |
| 2026-05-04 13:22 | 32.81819 | 25.70071 | 39135 ft | 541 kts | 142° |
| 2026-05-04 13:23 | 32.76147 | 25.75957 | 39135 ft | 541 kts | 142° |
| 2026-05-04 13:23 | 32.70474 | 25.81834 | 39103 ft | 542 kts | 142° |
| 2026-05-04 13:24 | 32.64795 | 25.87707 | 39139 ft | 541 kts | 142° |
| 2026-05-04 13:24 | 32.59118 | 25.93567 | 39139 ft | 542 kts | 142° |
| 2026-05-04 13:25 | 32.50580 | 26.02361 | 39141 ft | 542 kts | 143° |
| 2026-05-04 13:25 | 32.44889 | 26.08210 | 39140 ft | 542 kts | 143° |
| 2026-05-04 13:26 | 32.39196 | 26.14052 | 39137 ft | 542 kts | 143° |
| 2026-05-04 13:26 | 32.33499 | 26.19887 | 39128 ft | 542 kts | 143° |
| 2026-05-04 13:27 | 32.27834 | 26.25679 | 39131 ft | 542 kts | 143° |
| 2026-05-04 13:27 | 32.22127 | 26.31504 | 39130 ft | 543 kts | 143° |
| 2026-05-04 13:28 | 32.16414 | 26.37325 | 39135 ft | 543 kts | 143° |
| 2026-05-04 13:28 | 32.10684 | 26.43154 | 39139 ft | 543 kts | 143° |
| 2026-05-04 13:29 | 32.04955 | 26.48972 | 39127 ft | 543 kts | 144° |
| 2026-05-04 13:29 | 31.99222 | 26.54783 | 39131 ft | 544 kts | 144° |
| 2026-05-04 13:30 | 31.93483 | 26.60592 | 39144 ft | 544 kts | 144° |
| 2026-05-04 13:30 | 31.87744 | 26.66390 | 39142 ft | 544 kts | 144° |
| 2026-05-04 13:31 | 31.81999 | 26.72184 | 39142 ft | 544 kts | 144° |
| 2026-05-04 13:31 | 31.76250 | 26.77971 | 39138 ft | 544 kts | 144° |
| 2026-05-04 13:32 | 31.70522 | 26.83730 | 39141 ft | 543 kts | 144° |
| 2026-05-04 13:32 | 31.64794 | 26.89478 | 39145 ft | 543 kts | 144° |
| 2026-05-04 13:33 | 31.59052 | 26.95229 | 39154 ft | 542 kts | 144° |
| 2026-05-04 13:33 | 31.53310 | 27.00971 | 39153 ft | 542 kts | 145° |
| 2026-05-04 13:34 | 31.47566 | 27.06706 | 39151 ft | 542 kts | 145° |
| 2026-05-04 13:34 | 31.41822 | 27.12431 | 39140 ft | 542 kts | 145° |
| 2026-05-04 13:35 | 31.33282 | 27.21162 | 39152 ft | 548 kts | 139° |
| 2026-05-04 13:36 | 31.28519 | 27.28123 | 39154 ft | 556 kts | 127° |
| 2026-05-04 13:36 | 31.24206 | 27.35642 | 39155 ft | 557 kts | 128° |
| 2026-05-04 13:37 | 31.19860 | 27.43143 | 39156 ft | 557 kts | 128° |
| 2026-05-04 13:37 | 31.15549 | 27.50560 | 39148 ft | 557 kts | 128° |
| 2026-05-04 13:38 | 31.11180 | 27.58026 | 39143 ft | 557 kts | 129° |
| 2026-05-04 13:38 | 31.06755 | 27.65420 | 39139 ft | 556 kts | 129° |
| 2026-05-04 13:39 | 31.02355 | 27.72769 | 39114 ft | 556 kts | 129° |
| 2026-05-04 13:39 | 30.97951 | 27.80124 | 39122 ft | 557 kts | 129° |
| 2026-05-04 13:40 | 30.93514 | 27.87524 | 39122 ft | 557 kts | 129° |
| 2026-05-04 13:40 | 30.89069 | 27.94923 | 39127 ft | 558 kts | 129° |
| 2026-05-04 13:41 | 30.84618 | 28.02318 | 39127 ft | 558 kts | 129° |
| 2026-05-04 13:41 | 30.80160 | 28.09711 | 39123 ft | 558 kts | 129° |
| 2026-05-04 13:42 | 30.73471 | 28.20779 | 39128 ft | 558 kts | 129° |
| 2026-05-04 13:42 | 30.69763 | 28.26900 | 39119 ft | 557 kts | 130° |
| 2026-05-04 13:43 | 30.65356 | 28.34164 | 39115 ft | 557 kts | 130° |
| 2026-05-04 13:43 | 30.60897 | 28.41500 | 39125 ft | 556 kts | 130° |
| 2026-05-04 13:44 | 30.56439 | 28.48819 | 39113 ft | 555 kts | 130° |
| 2026-05-04 13:44 | 30.51981 | 28.56127 | 39106 ft | 555 kts | 130° |
| 2026-05-04 13:45 | 30.47521 | 28.63423 | 39104 ft | 554 kts | 130° |
| 2026-05-04 13:45 | 30.43061 | 28.70707 | 39095 ft | 553 kts | 130° |
| 2026-05-04 13:46 | 30.38609 | 28.77965 | 39088 ft | 553 kts | 130° |
| 2026-05-04 13:46 | 30.34145 | 28.85228 | 39087 ft | 553 kts | 130° |
| 2026-05-04 13:47 | 30.29733 | 28.92394 | 39087 ft | 553 kts | 130° |
| 2026-05-04 13:47 | 30.25261 | 28.99646 | 39090 ft | 553 kts | 131° |
| 2026-05-04 13:48 | 30.20793 | 29.06877 | 39086 ft | 552 kts | 131° |
| 2026-05-04 13:48 | 30.16333 | 29.14096 | 39083 ft | 552 kts | 131° |
| 2026-05-04 13:49 | 30.11910 | 29.21264 | 39080 ft | 552 kts | 130° |
| 2026-05-04 13:49 | 30.07515 | 29.28538 | 39085 ft | 552 kts | 130° |
| 2026-05-04 13:50 | 30.03135 | 29.35819 | 39085 ft | 552 kts | 130° |
| 2026-05-04 13:50 | 29.98751 | 29.43071 | 39082 ft | 551 kts | 130° |
| 2026-05-04 13:51 | 29.94353 | 29.50322 | 39080 ft | 551 kts | 130° |
| 2026-05-04 13:51 | 29.89954 | 29.57561 | 39080 ft | 551 kts | 130° |
| 2026-05-04 13:52 | 29.83356 | 29.68397 | 39079 ft | 551 kts | 130° |
| 2026-05-04 13:53 | 29.78980 | 29.75569 | 39079 ft | 551 kts | 130° |
| 2026-05-04 13:53 | 29.74539 | 29.82832 | 39073 ft | 551 kts | 131° |
| 2026-05-04 13:54 | 29.67927 | 29.93624 | 39080 ft | 550 kts | 131° |
| 2026-05-04 13:55 | 29.61308 | 30.04399 | 39079 ft | 549 kts | 131° |
| 2026-05-04 13:55 | 29.54690 | 30.15144 | 39081 ft | 549 kts | 131° |
| 2026-05-04 13:56 | 29.50280 | 30.22288 | 39072 ft | 548 kts | 131° |
| 2026-05-04 13:57 | 29.43743 | 30.32856 | 39069 ft | 547 kts | 131° |
| 2026-05-04 13:58 | 29.34090 | 30.46063 | 39072 ft | 536 kts | 141° |
| 2026-05-04 13:58 | 29.26358 | 30.55279 | 39072 ft | 536 kts | 141° |
| 2026-05-04 13:59 | 29.21191 | 30.61433 | 39072 ft | 536 kts | 141° |
| 2026-05-04 14:00 | 29.13426 | 30.70657 | 39069 ft | 537 kts | 141° |
| 2026-05-04 14:00 | 29.05642 | 30.79884 | 39069 ft | 537 kts | 141° |
| 2026-05-04 14:01 | 29.00448 | 30.86029 | 39060 ft | 537 kts | 141° |
| 2026-05-04 14:02 | 28.92668 | 30.95214 | 39061 ft | 537 kts | 141° |
| 2026-05-04 14:02 | 28.87463 | 31.01348 | 39057 ft | 537 kts | 142° |
| 2026-05-04 14:03 | 28.82262 | 31.07467 | 39057 ft | 537 kts | 142° |
| 2026-05-04 14:03 | 28.77078 | 31.13557 | 39059 ft | 537 kts | 142° |
| 2026-05-04 14:04 | 28.69293 | 31.22689 | 39056 ft | 538 kts | 141° |
| 2026-05-04 14:04 | 28.64250 | 31.29004 | 39046 ft | 539 kts | 139° |
| 2026-05-04 14:05 | 28.56785 | 31.38501 | 39041 ft | 539 kts | 140° |
| 2026-05-04 14:06 | 28.51760 | 31.44819 | 39047 ft | 539 kts | 140° |
| 2026-05-04 14:06 | 28.46717 | 31.51144 | 39049 ft | 540 kts | 140° |
| 2026-05-04 14:07 | 28.41673 | 31.57460 | 39056 ft | 539 kts | 140° |
| 2026-05-04 14:07 | 28.36631 | 31.63764 | 39051 ft | 539 kts | 140° |
| 2026-05-04 14:08 | 28.31586 | 31.70062 | 39005 ft | 539 kts | 140° |
| 2026-05-04 14:08 | 28.26551 | 31.76340 | 39041 ft | 538 kts | 140° |
| 2026-05-04 14:09 | 28.18994 | 31.85742 | 39044 ft | 537 kts | 140° |
| 2026-05-04 14:10 | 28.11436 | 31.95124 | 39048 ft | 537 kts | 140° |
| 2026-05-04 14:10 | 28.06395 | 32.01371 | 39043 ft | 537 kts | 140° |
| 2026-05-04 14:11 | 28.01898 | 32.08185 | 39034 ft | 551 kts | 128° |
| 2026-05-04 14:11 | 27.96358 | 32.19659 | 39034 ft | 554 kts | 125° |
| 2026-05-04 14:12 | 27.92717 | 32.27210 | 39037 ft | 554 kts | 125° |
| 2026-05-04 14:13 | 27.87171 | 32.38680 | 39008 ft | 554 kts | 126° |
| 2026-05-04 14:13 | 27.83500 | 32.46255 | 39006 ft | 554 kts | 126° |
| 2026-05-04 14:14 | 27.79761 | 32.53956 | 39009 ft | 555 kts | 126° |
| 2026-05-04 14:14 | 27.74211 | 32.65366 | 39006 ft | 554 kts | 126° |
| 2026-05-04 14:15 | 27.66805 | 32.80539 | 39002 ft | 555 kts | 126° |
| 2026-05-04 14:16 | 27.61211 | 32.91967 | 38991 ft | 553 kts | 126° |
| 2026-05-04 14:17 | 27.55677 | 33.03237 | 38993 ft | 552 kts | 126° |
| 2026-05-04 14:18 | 27.50093 | 33.14584 | 38983 ft | 552 kts | 126° |
| 2026-05-04 14:19 | 27.42636 | 33.29686 | 38984 ft | 552 kts | 126° |
| 2026-05-04 14:19 | 27.38912 | 33.37210 | 38982 ft | 552 kts | 126° |
| 2026-05-04 14:20 | 27.35175 | 33.44745 | 38916 ft | 551 kts | 126° |
| 2026-05-04 14:20 | 27.31442 | 33.52253 | 38963 ft | 549 kts | 126° |
| 2026-05-04 14:21 | 27.25843 | 33.63489 | 38960 ft | 549 kts | 126° |
| 2026-05-04 14:21 | 27.22109 | 33.70968 | 38961 ft | 549 kts | 126° |
| 2026-05-04 14:22 | 27.18383 | 33.78459 | 38964 ft | 551 kts | 124° |
| 2026-05-04 14:22 | 27.15366 | 33.86389 | 38968 ft | 558 kts | 117° |
| 2026-05-04 14:23 | 27.11068 | 33.98517 | 38961 ft | 558 kts | 118° |
| 2026-05-04 14:24 | 27.08185 | 34.06599 | 38962 ft | 558 kts | 118° |
| 2026-05-04 14:24 | 27.05301 | 34.14670 | 38952 ft | 557 kts | 118° |
| 2026-05-04 14:25 | 27.02413 | 34.22738 | 38946 ft | 557 kts | 118° |
| 2026-05-04 14:25 | 26.98071 | 34.34829 | 38937 ft | 557 kts | 119° |
| 2026-05-04 14:26 | 26.95180 | 34.42858 | 38933 ft | 557 kts | 119° |
| 2026-05-04 14:26 | 26.92277 | 34.50904 | 38933 ft | 556 kts | 119° |
| 2026-05-04 14:27 | 26.89382 | 34.58912 | 38927 ft | 556 kts | 119° |
| 2026-05-04 14:27 | 26.86469 | 34.66953 | 38926 ft | 556 kts | 119° |
| 2026-05-04 14:28 | 26.83560 | 34.74965 | 38906 ft | 556 kts | 119° |
| 2026-05-04 14:28 | 26.80645 | 34.82978 | 38927 ft | 555 kts | 119° |
| 2026-05-04 14:29 | 26.74842 | 34.98884 | 38929 ft | 556 kts | 119° |
| 2026-05-04 14:30 | 26.71917 | 35.06884 | 38929 ft | 555 kts | 119° |
| 2026-05-04 14:31 | 26.68018 | 35.17522 | 38928 ft | 555 kts | 119° |
| 2026-05-04 14:32 | 26.62148 | 35.33481 | 38923 ft | 555 kts | 119° |
| 2026-05-04 14:32 | 26.59205 | 35.41459 | 38928 ft | 555 kts | 120° |
| 2026-05-04 14:33 | 26.56279 | 35.49373 | 38921 ft | 555 kts | 120° |
| 2026-05-04 14:33 | 26.53270 | 35.57289 | 38926 ft | 553 kts | 120° |
| 2026-05-04 14:34 | 26.50240 | 35.65182 | 38924 ft | 553 kts | 120° |
| 2026-05-04 14:34 | 26.47217 | 35.73069 | 38922 ft | 553 kts | 120° |
| 2026-05-04 14:35 | 26.44193 | 35.80958 | 38929 ft | 551 kts | 120° |
| 2026-05-04 14:35 | 26.41205 | 35.88735 | 38919 ft | 551 kts | 120° |
| 2026-05-04 14:36 | 26.38187 | 35.96575 | 38920 ft | 550 kts | 120° |
| 2026-05-04 14:36 | 26.35163 | 36.04415 | 38917 ft | 550 kts | 120° |
| 2026-05-04 14:37 | 26.32148 | 36.12219 | 38910 ft | 550 kts | 120° |
| 2026-05-04 14:37 | 26.29120 | 36.20038 | 38908 ft | 550 kts | 120° |
| 2026-05-04 14:38 | 26.26108 | 36.27805 | 38909 ft | 549 kts | 120° |
| 2026-05-04 14:38 | 26.23079 | 36.35598 | 38914 ft | 548 kts | 120° |
| 2026-05-04 14:39 | 26.20050 | 36.43378 | 38914 ft | 548 kts | 121° |
| 2026-05-04 14:39 | 26.16864 | 36.51026 | 38895 ft | 541 kts | 127° |
| 2026-05-04 14:40 | 26.11426 | 36.62014 | 38911 ft | 540 kts | 126° |
| 2026-05-04 14:40 | 26.07827 | 36.69324 | 38917 ft | 540 kts | 127° |
| 2026-05-04 14:41 | 26.04206 | 36.76656 | 38897 ft | 539 kts | 126° |
| 2026-05-04 14:42 | 25.96985 | 36.91238 | 38897 ft | 539 kts | 127° |
| 2026-05-04 14:42 | 25.93365 | 36.98532 | 38891 ft | 539 kts | 127° |
| 2026-05-04 14:43 | 25.89747 | 37.05809 | 38890 ft | 538 kts | 126° |
| 2026-05-04 14:43 | 25.86124 | 37.13083 | 38888 ft | 538 kts | 127° |
| 2026-05-04 14:44 | 25.82496 | 37.20357 | 38891 ft | 538 kts | 127° |
| 2026-05-04 14:44 | 25.78869 | 37.27621 | 38894 ft | 538 kts | 126° |
| 2026-05-04 14:45 | 25.75258 | 37.34885 | 38900 ft | 537 kts | 126° |
| 2026-05-04 14:45 | 25.71647 | 37.42138 | 38888 ft | 537 kts | 126° |
| 2026-05-04 14:46 | 25.68025 | 37.49394 | 38885 ft | 538 kts | 126° |
| 2026-05-04 14:46 | 25.64441 | 37.56567 | 38912 ft | 538 kts | 126° |
| 2026-05-04 14:47 | 25.60841 | 37.63756 | 38904 ft | 537 kts | 126° |
| 2026-05-04 14:47 | 25.57207 | 37.70997 | 38914 ft | 538 kts | 126° |
| 2026-05-04 14:48 | 25.53581 | 37.78217 | 38919 ft | 538 kts | 126° |
| 2026-05-04 14:48 | 25.49935 | 37.85467 | 38911 ft | 538 kts | 126° |
| 2026-05-04 14:49 | 25.46290 | 37.92701 | 38906 ft | 538 kts | 126° |
| 2026-05-04 14:49 | 25.42641 | 37.99931 | 38900 ft | 539 kts | 126° |
| 2026-05-04 14:50 | 25.38984 | 38.07165 | 38889 ft | 539 kts | 126° |
| 2026-05-04 14:50 | 25.35323 | 38.14398 | 38887 ft | 538 kts | 126° |
| 2026-05-04 14:51 | 25.31663 | 38.21616 | 38878 ft | 538 kts | 127° |
| 2026-05-04 14:51 | 25.27999 | 38.28829 | 38881 ft | 539 kts | 127° |
| 2026-05-04 14:52 | 25.24331 | 38.36041 | 38875 ft | 539 kts | 127° |
| 2026-05-04 14:52 | 25.20655 | 38.43256 | 38858 ft | 539 kts | 127° |
| 2026-05-04 14:53 | 25.16972 | 38.50473 | 38877 ft | 540 kts | 127° |
| 2026-05-04 14:53 | 25.13280 | 38.57694 | 38881 ft | 540 kts | 127° |
| 2026-05-04 14:54 | 25.09580 | 38.64912 | 38871 ft | 541 kts | 127° |
| 2026-05-04 14:54 | 25.05893 | 38.72094 | 38877 ft | 541 kts | 127° |
| 2026-05-04 14:55 | 25.02177 | 38.79320 | 38877 ft | 542 kts | 126° |
| 2026-05-04 14:55 | 24.98455 | 38.86551 | 38892 ft | 542 kts | 127° |
| 2026-05-04 14:56 | 24.94746 | 38.93742 | 38895 ft | 541 kts | 127° |
| 2026-05-04 14:56 | 24.91029 | 39.00926 | 38896 ft | 541 kts | 127° |
| 2026-05-04 14:57 | 24.87308 | 39.08103 | 38905 ft | 541 kts | 127° |
| 2026-05-04 14:57 | 24.83569 | 39.15307 | 38908 ft | 540 kts | 127° |
| 2026-05-04 14:58 | 24.79837 | 39.22489 | 38897 ft | 540 kts | 127° |
| 2026-05-04 14:58 | 24.76108 | 39.29661 | 38895 ft | 540 kts | 127° |
| 2026-05-04 14:59 | 24.72372 | 39.36832 | 38894 ft | 540 kts | 127° |
| 2026-05-04 15:00 | 24.66758 | 39.47587 | 38893 ft | 541 kts | 127° |
| 2026-05-04 15:00 | 24.63011 | 39.54755 | 38915 ft | 541 kts | 127° |
| 2026-05-04 15:01 | 24.57493 | 39.65414 | 38911 ft | 542 kts | 123° |
| 2026-05-04 15:01 | 24.54842 | 39.73244 | 38911 ft | 554 kts | 109° |
| 2026-05-04 15:02 | 24.53674 | 39.81671 | 38879 ft | 561 kts | 100° |
| 2026-05-04 15:02 | 24.52876 | 39.90163 | 38931 ft | 559 kts | 100° |
| 2026-05-04 15:03 | 24.52052 | 39.98639 | 38928 ft | 558 kts | 100° |
| 2026-05-04 15:03 | 24.51226 | 40.07107 | 38918 ft | 557 kts | 100° |
| 2026-05-04 15:04 | 24.50398 | 40.15561 | 38910 ft | 557 kts | 100° |
| 2026-05-04 15:04 | 24.49573 | 40.23951 | 38906 ft | 556 kts | 100° |
| 2026-05-04 15:05 | 24.48738 | 40.32387 | 38902 ft | 556 kts | 100° |
| 2026-05-04 15:05 | 24.47899 | 40.40817 | 38896 ft | 555 kts | 101° |
| 2026-05-04 15:06 | 24.47056 | 40.49233 | 38883 ft | 555 kts | 101° |
| 2026-05-04 15:07 | 24.45798 | 40.61719 | 38902 ft | 553 kts | 101° |
| 2026-05-04 15:07 | 24.44945 | 40.70112 | 38898 ft | 553 kts | 101° |
| 2026-05-04 15:08 | 24.44088 | 40.78500 | 38884 ft | 554 kts | 101° |
| 2026-05-04 15:08 | 24.43225 | 40.86896 | 38884 ft | 553 kts | 101° |
| 2026-05-04 15:09 | 24.42359 | 40.95284 | 38904 ft | 552 kts | 101° |
| 2026-05-04 15:09 | 24.41490 | 41.03656 | 38911 ft | 552 kts | 101° |
| 2026-05-04 15:10 | 24.40180 | 41.16197 | 38926 ft | 551 kts | 101° |
| 2026-05-04 15:11 | 24.38869 | 41.28657 | 38927 ft | 550 kts | 101° |
| 2026-05-04 15:11 | 24.37981 | 41.37045 | 38930 ft | 549 kts | 101° |
| 2026-05-04 15:12 | 24.37096 | 41.45355 | 38937 ft | 548 kts | 101° |
| 2026-05-04 15:12 | 24.36208 | 41.53653 | 38938 ft | 548 kts | 101° |
| 2026-05-04 15:13 | 24.35318 | 41.61923 | 38926 ft | 547 kts | 101° |
| 2026-05-04 15:13 | 24.34423 | 41.70204 | 38925 ft | 547 kts | 101° |
| 2026-05-04 15:14 | 24.33528 | 41.78430 | 38910 ft | 547 kts | 101° |
| 2026-05-04 15:14 | 24.32041 | 41.86527 | 38916 ft | 539 kts | 112° |
| 2026-05-04 15:15 | 24.29938 | 41.94409 | 38913 ft | 539 kts | 111° |
| 2026-05-04 15:15 | 24.27866 | 42.02307 | 38937 ft | 538 kts | 111° |
| 2026-05-04 15:16 | 24.24752 | 42.14121 | 38929 ft | 538 kts | 111° |
| 2026-05-04 15:17 | 24.21626 | 42.25927 | 38934 ft | 537 kts | 111° |
| 2026-05-04 15:17 | 24.18494 | 42.37713 | 38945 ft | 537 kts | 111° |
| 2026-05-04 15:18 | 24.16400 | 42.45571 | 38933 ft | 538 kts | 111° |
| 2026-05-04 15:19 | 24.13274 | 42.57267 | 38941 ft | 538 kts | 112° |
| 2026-05-04 15:19 | 24.10110 | 42.69065 | 38947 ft | 539 kts | 112° |
| 2026-05-04 15:20 | 24.08353 | 42.75603 | 38953 ft | 539 kts | 112° |
| 2026-05-04 15:20 | 24.06230 | 42.83482 | 38956 ft | 540 kts | 112° |
| 2026-05-04 15:21 | 24.04106 | 42.91352 | 38956 ft | 540 kts | 112° |
| 2026-05-04 15:22 | 24.00908 | 43.03157 | 38959 ft | 540 kts | 112° |
| 2026-05-04 15:22 | 23.97703 | 43.14955 | 38963 ft | 539 kts | 112° |
| 2026-05-04 15:23 | 23.95564 | 43.22805 | 38961 ft | 539 kts | 112° |
| 2026-05-04 15:23 | 23.93419 | 43.30658 | 38949 ft | 539 kts | 112° |
| 2026-05-04 15:24 | 23.89126 | 43.46328 | 38949 ft | 539 kts | 112° |
| 2026-05-04 15:25 | 23.87040 | 43.53916 | 38936 ft | 539 kts | 112° |
| 2026-05-04 15:26 | 23.83803 | 43.65663 | 38926 ft | 538 kts | 111° |
| 2026-05-04 15:26 | 23.80559 | 43.77397 | 38918 ft | 538 kts | 112° |
| 2026-05-04 15:27 | 23.77554 | 43.89153 | 38913 ft | 542 kts | 104° |
| 2026-05-04 15:28 | 23.76457 | 44.01490 | 38898 ft | 545 kts | 98° |
| 2026-05-04 15:29 | 23.75531 | 44.13858 | 38893 ft | 545 kts | 98° |
| 2026-05-04 15:30 | 23.73341 | 44.42699 | 38885 ft | 545 kts | 98° |
| 2026-05-04 15:31 | 23.72398 | 44.54924 | 38916 ft | 543 kts | 98° |
| 2026-05-04 15:32 | 23.70793 | 44.75420 | 38908 ft | 541 kts | 98° |
| 2026-05-04 15:34 | 23.69172 | 44.95784 | 38917 ft | 540 kts | 98° |
| 2026-05-04 15:34 | 23.68183 | 45.08015 | 38895 ft | 539 kts | 98° |
| 2026-05-04 15:35 | 23.67187 | 45.20219 | 38890 ft | 538 kts | 98° |
| 2026-05-04 15:36 | 23.66183 | 45.32410 | 38879 ft | 538 kts | 98° |
| 2026-05-04 15:36 | 23.65509 | 45.40528 | 38876 ft | 537 kts | 98° |
| 2026-05-04 15:37 | 23.64831 | 45.48646 | 38868 ft | 537 kts | 99° |
| 2026-05-04 15:37 | 23.64149 | 45.56749 | 38853 ft | 536 kts | 98° |
| 2026-05-04 15:38 | 23.63465 | 45.64844 | 38854 ft | 536 kts | 98° |
| 2026-05-04 15:38 | 23.62775 | 45.72927 | 38853 ft | 535 kts | 98° |
| 2026-05-04 15:39 | 23.62082 | 45.81015 | 38858 ft | 535 kts | 98° |
| 2026-05-04 15:40 | 23.61037 | 45.93100 | 38859 ft | 534 kts | 98° |
| 2026-05-04 15:40 | 23.60336 | 46.01158 | 38855 ft | 534 kts | 98° |
| 2026-05-04 15:41 | 23.59629 | 46.09228 | 38859 ft | 534 kts | 99° |
| 2026-05-04 15:41 | 23.58923 | 46.17237 | 38863 ft | 534 kts | 99° |
| 2026-05-04 15:42 | 23.58209 | 46.25295 | 38880 ft | 534 kts | 99° |
| 2026-05-04 15:42 | 23.57489 | 46.33353 | 38888 ft | 534 kts | 99° |
| 2026-05-04 15:43 | 23.56768 | 46.41397 | 38887 ft | 533 kts | 99° |
| 2026-05-04 15:43 | 23.56047 | 46.49394 | 38886 ft | 533 kts | 99° |
| 2026-05-04 15:44 | 23.55318 | 46.57427 | 38875 ft | 532 kts | 99° |
| 2026-05-04 15:44 | 23.54585 | 46.65445 | 38869 ft | 531 kts | 98° |
| 2026-05-04 15:45 | 23.53851 | 46.73451 | 38856 ft | 531 kts | 98° |
| 2026-05-04 15:45 | 23.53112 | 46.81453 | 38842 ft | 531 kts | 99° |
| 2026-05-04 15:46 | 23.52369 | 46.89450 | 38844 ft | 530 kts | 99° |
| 2026-05-04 15:46 | 23.51624 | 46.97437 | 38843 ft | 530 kts | 99° |
| 2026-05-04 15:47 | 23.50873 | 47.05432 | 38830 ft | 530 kts | 99° |
| 2026-05-04 15:47 | 23.50119 | 47.13418 | 38814 ft | 530 kts | 99° |
| 2026-05-04 15:48 | 23.49362 | 47.21391 | 38827 ft | 529 kts | 99° |
| 2026-05-04 15:48 | 23.48220 | 47.33339 | 38820 ft | 529 kts | 99° |
| 2026-05-04 15:49 | 23.47453 | 47.41307 | 38815 ft | 529 kts | 99° |
| 2026-05-04 15:49 | 23.46686 | 47.49239 | 38808 ft | 528 kts | 99° |
| 2026-05-04 15:50 | 23.45914 | 47.57174 | 38804 ft | 528 kts | 99° |
| 2026-05-04 15:50 | 23.45137 | 47.65128 | 38795 ft | 528 kts | 99° |
| 2026-05-04 15:51 | 23.44355 | 47.73079 | 38791 ft | 528 kts | 99° |
| 2026-05-04 15:51 | 23.43570 | 47.81030 | 38787 ft | 528 kts | 99° |
| 2026-05-04 15:52 | 23.42786 | 47.88930 | 38779 ft | 528 kts | 99° |
| 2026-05-04 15:52 | 23.41992 | 47.96884 | 38779 ft | 529 kts | 99° |
| 2026-05-04 15:53 | 23.41194 | 48.04841 | 38778 ft | 529 kts | 99° |
| 2026-05-04 15:53 | 23.40390 | 48.12811 | 38773 ft | 530 kts | 99° |
| 2026-05-04 15:54 | 23.39582 | 48.20779 | 38773 ft | 530 kts | 99° |
| 2026-05-04 15:54 | 23.38770 | 48.28758 | 38773 ft | 531 kts | 99° |
| 2026-05-04 15:55 | 23.38098 | 48.36769 | 38784 ft | 532 kts | 94° |
| 2026-05-04 15:55 | 23.37796 | 48.44813 | 38783 ft | 532 kts | 95° |
| 2026-05-04 15:56 | 23.37476 | 48.52756 | 38779 ft | 532 kts | 95° |
| 2026-05-04 15:56 | 23.37146 | 48.60799 | 38777 ft | 532 kts | 95° |
| 2026-05-04 15:57 | 23.36812 | 48.68840 | 38778 ft | 532 kts | 95° |
| 2026-05-04 15:57 | 23.36474 | 48.76888 | 38770 ft | 532 kts | 95° |
| 2026-05-04 15:58 | 23.36133 | 48.84913 | 38772 ft | 532 kts | 95° |
| 2026-05-04 15:58 | 23.35787 | 48.92955 | 38774 ft | 531 kts | 95° |
| 2026-05-04 15:59 | 23.35438 | 49.00983 | 38773 ft | 531 kts | 95° |
| 2026-05-04 15:59 | 23.34861 | 49.08968 | 38769 ft | 528 kts | 102° |
| 2026-05-04 16:00 | 23.33701 | 49.16852 | 38766 ft | 527 kts | 102° |
| 2026-05-04 16:00 | 23.32576 | 49.24730 | 38764 ft | 527 kts | 102° |
| 2026-05-04 16:01 | 23.31445 | 49.32614 | 38763 ft | 527 kts | 102° |
| 2026-05-04 16:01 | 23.30306 | 49.40496 | 38764 ft | 528 kts | 102° |
| 2026-05-04 16:02 | 23.29177 | 49.48275 | 38775 ft | 527 kts | 102° |
| 2026-05-04 16:03 | 23.27456 | 49.60079 | 38768 ft | 527 kts | 102° |
| 2026-05-04 16:03 | 23.26303 | 49.67949 | 38770 ft | 527 kts | 102° |
| 2026-05-04 16:04 | 23.25148 | 49.75812 | 38772 ft | 527 kts | 102° |
| 2026-05-04 16:04 | 23.23407 | 49.87600 | 38770 ft | 527 kts | 102° |
| 2026-05-04 16:05 | 23.22241 | 49.95465 | 38770 ft | 527 kts | 102° |
| 2026-05-04 16:06 | 23.20493 | 50.07199 | 38769 ft | 527 kts | 102° |
| 2026-05-04 16:07 | 23.18139 | 50.22905 | 38772 ft | 527 kts | 102° |
| 2026-05-04 16:08 | 23.15772 | 50.38594 | 38773 ft | 527 kts | 102° |
| 2026-05-04 16:09 | 23.12971 | 50.57012 | 38776 ft | 528 kts | 102° |
| 2026-05-04 16:10 | 23.10571 | 50.72688 | 38778 ft | 528 kts | 101° |
| 2026-05-04 16:11 | 23.08144 | 50.88421 | 38779 ft | 528 kts | 102° |
| 2026-05-04 16:12 | 23.04479 | 51.11983 | 38771 ft | 528 kts | 101° |
| 2026-05-04 16:13 | 23.02017 | 51.27689 | 38790 ft | 527 kts | 101° |
| 2026-05-04 16:14 | 22.99550 | 51.43310 | 38779 ft | 527 kts | 101° |
| 2026-05-04 16:16 | 22.96440 | 51.62864 | 38775 ft | 527 kts | 101° |
| 2026-05-04 16:17 | 22.93296 | 51.82476 | 38780 ft | 528 kts | 101° |
| 2026-05-04 16:18 | 22.90762 | 51.98164 | 38775 ft | 528 kts | 101° |
| 2026-05-04 16:19 | 22.87566 | 52.17805 | 38781 ft | 530 kts | 101° |
| 2026-05-04 16:20 | 22.84343 | 52.37466 | 38790 ft | 529 kts | 101° |
| 2026-05-04 16:22 | 22.82232 | 52.57215 | 38782 ft | 530 kts | 91° |
| 2026-05-04 16:23 | 22.81613 | 52.81180 | 38777 ft | 530 kts | 92° |
| 2026-05-04 16:25 | 22.80952 | 53.05136 | 38785 ft | 530 kts | 91° |
| 2026-05-04 16:26 | 22.80138 | 53.33048 | 38771 ft | 530 kts | 92° |
| 2026-05-04 16:28 | 22.79530 | 53.52845 | 38768 ft | 530 kts | 92° |
| 2026-05-04 16:29 | 22.78633 | 53.80712 | 38768 ft | 530 kts | 92° |
| 2026-05-04 16:31 | 22.78436 | 54.00632 | 38780 ft | 528 kts | 82° |
| 2026-05-04 16:32 | 22.82971 | 54.23897 | 38772 ft | 527 kts | 76° |
| 2026-05-04 16:33 | 22.86719 | 54.39254 | 38767 ft | 522 kts | 60° |
| 2026-05-04 16:34 | 22.90959 | 54.45294 | 38765 ft | 513 kts | 38° |
| 2026-05-04 16:34 | 22.93646 | 54.47840 | 38762 ft | 512 kts | 38° |
| 2026-05-04 16:35 | 23.09669 | 54.63293 | 38758 ft | 514 kts | 38° |
| 2026-05-04 16:36 | 23.17660 | 54.71087 | 38760 ft | 515 kts | 38° |
| 2026-05-04 16:37 | 23.25652 | 54.78895 | 38765 ft | 515 kts | 38° |
| 2026-05-04 16:38 | 23.36328 | 54.89344 | 38764 ft | 517 kts | 38° |
| 2026-05-04 16:39 | 23.49702 | 55.02468 | 38782 ft | 518 kts | 38° |
| 2026-05-04 16:40 | 23.60411 | 55.13003 | 38787 ft | 518 kts | 38° |
| 2026-05-04 16:41 | 23.73775 | 55.26185 | 38781 ft | 519 kts | 38° |
| 2026-05-04 16:43 | 23.87081 | 55.39351 | 38405 ft | 511 kts | 38° |
| 2026-05-04 16:43 | 23.92340 | 55.44562 | 37690 ft | 511 kts | 38° |
| 2026-05-04 16:43 | 23.95014 | 55.47212 | 36967 ft | 512 kts | 38° |
| 2026-05-04 16:44 | 24.05641 | 55.57748 | 33216 ft | 528 kts | 38° |
| 2026-05-04 16:45 | 24.11022 | 55.63079 | 32131 ft | 512 kts | 38° |
| 2026-05-04 16:46 | 24.18879 | 55.70870 | 30126 ft | 503 kts | 38° |
| 2026-05-04 16:46 | 24.24015 | 55.75971 | 28727 ft | 495 kts | 39° |
| 2026-05-04 16:47 | 24.29042 | 55.80970 | 27637 ft | 481 kts | 39° |
| 2026-05-04 16:47 | 24.33970 | 55.85872 | 26193 ft | 477 kts | 39° |
| 2026-05-04 16:48 | 24.41191 | 55.93068 | 24361 ft | 465 kts | 40° |
| 2026-05-04 16:48 | 24.43564 | 55.95434 | 23957 ft | 456 kts | 40° |
| 2026-05-04 16:49 | 24.48106 | 55.99972 | 23391 ft | 433 kts | 40° |
| 2026-05-04 16:49 | 24.52518 | 56.04377 | 22275 ft | 423 kts | 40° |
| 2026-05-04 16:50 | 24.56819 | 56.08684 | 21230 ft | 414 kts | 40° |
| 2026-05-04 16:50 | 24.61488 | 56.12113 | 20209 ft | 398 kts | 19° |
| 2026-05-04 16:51 | 24.66793 | 56.13378 | 19001 ft | 386 kts | 7° |
| 2026-05-04 16:51 | 24.69420 | 56.13853 | 18394 ft | 381 kts | 7° |
| 2026-05-04 16:51 | 24.74592 | 56.14135 | 16992 ft | 368 kts | 345° |
| 2026-05-04 16:52 | 24.79452 | 56.12512 | 15569 ft | 361 kts | 338° |
| 2026-05-04 16:52 | 24.81609 | 56.11138 | 14842 ft | 358 kts | 319° |
| 2026-05-04 16:53 | 24.84596 | 56.06819 | 13275 ft | 354 kts | 304° |
| 2026-05-04 16:53 | 24.88731 | 56.00078 | 10647 ft | 350 kts | 305° |
| 2026-05-04 16:54 | 24.90068 | 55.97921 | 9923 ft | 346 kts | 306° |
| 2026-05-04 16:55 | 24.95327 | 55.89439 | 8206 ft | 308 kts | 305° |
| 2026-05-04 16:55 | 24.97636 | 55.85708 | 7939 ft | 283 kts | 306° |
| 2026-05-04 16:56 | 24.99830 | 55.82165 | 7360 ft | 280 kts | 305° |
| 2026-05-04 16:56 | 25.02815 | 55.76857 | 6671 ft | 264 kts | 302° |
| 2026-05-04 16:57 | 25.03751 | 55.75148 | 6504 ft | 257 kts | 303° |
| 2026-05-04 16:57 | 25.05278 | 55.72394 | 6203 ft | 247 kts | 303° |
| 2026-05-04 16:58 | 25.07894 | 55.67784 | 5510 ft | 224 kts | 304° |
| 2026-05-04 16:58 | 25.08716 | 55.66355 | 5291 ft | 219 kts | 303° |
| 2026-05-04 16:59 | 25.10227 | 55.63629 | 4747 ft | 204 kts | 303° |
| 2026-05-04 17:00 | 25.13186 | 55.58293 | 3707 ft | 195 kts | 302° |
| 2026-05-04 17:00 | 25.15116 | 55.54809 | 3038 ft | 172 kts | 302° |
| 2026-05-04 17:01 | 25.16345 | 55.52590 | 2617 ft | 169 kts | 301° |
| 2026-05-04 17:01 | 25.17560 | 55.50396 | 2198 ft | 167 kts | 300° |
| 2026-05-04 17:02 | 25.18694 | 55.48351 | 1786 ft | 142 kts | 301° |
| 2026-05-04 17:02 | 25.19700 | 55.46530 | 1438 ft | 138 kts | 301° |
| 2026-05-04 17:03 | 25.20198 | 55.45625 | 1258 ft | 138 kts | 300° |
| 2026-05-04 17:03 | 25.20692 | 55.44713 | 1081 ft | 138 kts | 301° |
| 2026-05-04 17:03 | 25.21695 | 55.42904 | 721 ft | 134 kts | 301° |
| 2026-05-04 17:04 | 25.22699 | 55.41090 | 399 ft | 139 kts | 300° |
| 2026-05-04 17:04 | 25.23697 | 55.39297 | 42 ft | 138 kts | 299° |
| 2026-05-04 17:05 | 25.24445 | 55.37944 | 30 ft | 72 kts | 301° |
| 2026-05-04 17:05 | 25.24726 | 55.37438 | 27 ft | 21 kts | 302° |
| 2026-05-04 17:06 | 25.24783 | 55.37192 | 29 ft | 16 kts | 271° |
| 2026-05-04 17:06 | 25.24786 | 55.37069 | 28 ft | 12 kts | 272° |
| 2026-05-04 17:07 | 25.24826 | 55.36900 | 27 ft | 11 kts | 299° |
| 2026-05-04 17:07 | 25.24848 | 55.36847 | 27 ft | 13 kts | 288° |
| 2026-05-04 17:07 | 25.24879 | 55.36703 | 26 ft | 14 kts | 289° |
| 2026-05-04 17:07 | 25.24910 | 55.36631 | 26 ft | 11 kts | 301° |
| 2026-05-04 17:08 | 25.24957 | 55.36549 | 26 ft | 14 kts | 302° |
| 2026-05-04 17:08 | 25.25044 | 55.36394 | 26 ft | 13 kts | 302° |
| 2026-05-04 17:08 | 25.25097 | 55.36302 | 26 ft | 16 kts | 302° |
| 2026-05-04 17:09 | 25.25149 | 55.36210 | 27 ft | 9 kts | 302° |
| 2026-05-04 17:09 | 25.25186 | 55.36143 | 26 ft | 12 kts | 301° |
| 2026-05-04 17:09 | 25.25236 | 55.36054 | 26 ft | 15 kts | 302° |
| 2026-05-04 17:10 | 25.25323 | 55.35900 | 26 ft | 14 kts | 302° |
| 2026-05-04 17:10 | 25.25459 | 55.35659 | 29 ft | 15 kts | 301° |
| 2026-05-04 17:11 | 25.25505 | 55.35574 | 31 ft | 6 kts | 301° |
| 2026-05-04 17:11 | 25.25515 | 55.35547 | 31 ft | 2 kts | 267° |
| 2026-05-04 17:11 | 25.25510 | 55.35524 | 31 ft | 0 kts | 241° |
| 2026-05-04 17:12 | 25.25510 | 55.35523 | 31 ft | 0 kts | 239° |
| 2026-05-04 17:12 | 25.25506 | 55.35516 | 30 ft | 1 kts | 234° |
| 2026-05-04 17:13 | 25.25477 | 55.35495 | 28 ft | 2 kts | 206° |
| 2026-05-04 17:14 | 25.25428 | 55.35467 | 29 ft | 3 kts | 211° |
| 2026-05-04 17:14 | 25.25410 | 55.35455 | 30 ft | 3 kts | 211° |
| 2026-05-04 17:14 | 25.25377 | 55.35432 | 30 ft | 3 kts | 211° |
| 2026-05-04 17:15 | 25.25372 | 55.35429 | 30 ft | 0 kts | 211° |